createdAt,value
2018-01-27T00:00:01.006Z,7.19
2018-01-27T00:02:29.086Z,7.10
2018-01-27T00:04:57.425Z,7.13
2018-01-27T00:07:25.809Z,7.15
2018-01-27T00:09:54.169Z,7.10
2018-01-27T00:12:22.518Z,7.07
2018-01-27T00:14:50.841Z,7.05
2018-01-27T00:17:19.201Z,6.93
2018-01-27T00:19:47.521Z,7.02
2018-01-27T00:22:15.965Z,6.89
2018-01-27T00:24:44.309Z,7.00
2018-01-27T00:27:12.637Z,6.88
2018-01-27T00:29:40.995Z,6.95
2018-01-27T00:32:09.317Z,6.92
2018-01-27T00:34:37.748Z,7.04
2018-01-27T00:37:06.078Z,6.98
2018-01-27T00:39:34.501Z,7.00
2018-01-27T00:42:02.830Z,6.94
2018-01-27T00:44:31.269Z,7.02
2018-01-27T00:46:59.598Z,6.86
2018-01-27T00:49:28.021Z,6.92
2018-01-27T00:51:56.345Z,6.92
2018-01-27T00:54:24.764Z,6.91
2018-01-27T00:56:53.094Z,6.96
2018-01-27T00:59:21.450Z,7.00
2018-01-27T01:01:49.773Z,6.97
2018-01-27T01:04:18.117Z,6.97
2018-01-27T01:06:46.443Z,6.97
2018-01-27T01:09:14.785Z,7.02
2018-01-27T01:11:43.114Z,7.13
2018-01-27T01:14:11.453Z,7.14
2018-01-27T01:16:39.778Z,7.14
2018-01-27T01:19:08.125Z,7.27
2018-01-27T01:21:36.445Z,7.23
2018-01-27T01:24:04.789Z,7.27
2018-01-27T01:26:33.109Z,7.14
2018-01-27T01:29:01.456Z,7.14
2018-01-27T01:31:29.777Z,7.14
2018-01-27T01:33:58.120Z,7.29
2018-01-27T01:36:26.445Z,7.35
2018-01-27T01:38:54.796Z,7.44
2018-01-27T01:41:23.121Z,7.48
2018-01-27T01:43:57.126Z,7.50
2018-01-27T01:46:25.449Z,7.56
2018-01-27T01:48:53.793Z,7.56
2018-01-27T01:51:22.117Z,7.47
2018-01-27T01:53:50.465Z,7.47
2018-01-27T01:56:18.789Z,7.52
2018-01-27T01:58:47.135Z,7.49
2018-01-27T02:01:15.457Z,7.55
2018-01-27T02:03:43.805Z,7.59
2018-01-27T02:06:12.133Z,7.53
2018-01-27T02:08:40.473Z,7.57
2018-01-27T02:11:08.794Z,7.38
2018-01-27T02:13:37.138Z,7.49
2018-01-27T02:16:05.461Z,7.44
2018-01-27T02:18:33.809Z,7.54
2018-01-27T02:21:02.133Z,7.48
2018-01-27T02:23:30.476Z,7.14
2018-01-27T02:25:58.801Z,7.22
2018-01-27T02:28:27.126Z,7.18
2018-01-27T02:30:55.471Z,7.08
2018-01-27T02:33:23.794Z,7.14
2018-01-27T02:35:52.137Z,7.27
2018-01-27T02:38:20.460Z,7.34
2018-01-27T02:40:48.805Z,7.33
2018-01-27T02:43:17.984Z,7.15
2018-01-27T02:45:46.313Z,7.29
2018-01-27T02:48:14.641Z,7.29
2018-01-27T02:50:42.986Z,7.10
2018-01-27T02:53:11.310Z,7.05
2018-01-27T02:55:39.654Z,6.90
2018-01-27T02:58:07.982Z,6.80
2018-01-27T03:00:36.321Z,6.76
2018-01-27T03:03:04.645Z,6.81
2018-01-27T03:05:32.992Z,6.80
2018-01-27T03:08:01.325Z,6.84
2018-01-27T03:10:29.669Z,6.97
2018-01-27T03:12:57.998Z,6.98
2018-01-27T03:15:26.340Z,7.08
2018-01-27T03:17:54.665Z,7.12
2018-01-27T03:20:23.009Z,6.92
2018-01-27T03:22:51.333Z,7.13
2018-01-27T03:25:19.678Z,7.08
2018-01-27T03:27:48.002Z,7.00
2018-01-27T03:30:16.350Z,6.97
2018-01-27T03:32:44.677Z,7.07
2018-01-27T03:35:13.021Z,7.12
2018-01-27T03:37:41.346Z,6.99
2018-01-27T03:40:09.689Z,7.05
2018-01-27T03:42:38.014Z,7.09
2018-01-27T03:45:06.358Z,7.03
2018-01-27T03:47:34.681Z,6.99
2018-01-27T03:50:03.026Z,7.02
2018-01-27T03:52:31.349Z,6.99
2018-01-27T03:54:59.693Z,7.04
2018-01-27T03:57:28.022Z,6.96
2018-01-27T03:59:56.365Z,7.01
2018-01-27T04:02:24.689Z,7.02
2018-01-27T04:04:53.034Z,7.09
2018-01-27T04:07:21.357Z,7.10
2018-01-27T04:09:49.701Z,7.01
2018-01-27T04:12:18.025Z,7.01
2018-01-27T04:14:46.368Z,6.86
2018-01-27T04:17:14.701Z,6.91
2018-01-27T04:19:43.042Z,6.80
2018-01-27T04:22:11.365Z,6.72
2018-01-27T04:24:39.712Z,6.75
2018-01-27T04:27:08.029Z,6.74
2018-01-27T04:29:36.354Z,6.71
2018-01-27T04:32:04.705Z,6.68
2018-01-27T04:34:33.025Z,6.65
2018-01-27T04:37:01.373Z,6.61
2018-01-27T04:39:29.693Z,6.58
2018-01-27T04:41:58.037Z,6.56
2018-01-27T04:44:26.373Z,6.55
2018-01-27T04:46:54.725Z,6.53
2018-01-27T04:49:23.046Z,6.50
2018-01-27T04:51:51.395Z,6.48
2018-01-27T04:54:19.717Z,6.47
2018-01-27T04:56:48.067Z,6.47
2018-01-27T04:59:16.384Z,6.43
2018-01-27T05:01:44.729Z,6.44
2018-01-27T05:04:13.061Z,6.45
2018-01-27T05:06:41.406Z,6.45
2018-01-27T05:09:09.729Z,6.49
2018-01-27T05:11:38.078Z,6.47
2018-01-27T05:14:06.398Z,6.50
2018-01-27T05:16:34.745Z,6.50
2018-01-27T05:19:03.065Z,6.46
2018-01-27T05:21:31.408Z,6.42
2018-01-27T05:23:59.733Z,6.48
2018-01-27T05:26:28.077Z,6.50
2018-01-27T05:28:56.401Z,6.43
2018-01-27T05:31:24.749Z,6.47
2018-01-27T05:33:53.073Z,6.35
2018-01-27T05:36:21.421Z,6.52
2018-01-27T05:38:49.746Z,6.28
2018-01-27T05:41:18.096Z,6.31
2018-01-27T05:43:46.421Z,6.41
2018-01-27T05:46:14.765Z,6.49
2018-01-27T05:48:43.093Z,6.49
2018-01-27T05:51:11.433Z,6.52
2018-01-27T05:53:39.770Z,6.51
2018-01-27T05:56:08.105Z,6.54
2018-01-27T05:58:36.430Z,6.53
2018-01-27T06:01:04.773Z,6.54
2018-01-27T06:03:33.103Z,6.51
2018-01-27T06:06:01.449Z,6.51
2018-01-27T06:08:29.773Z,6.40
2018-01-27T06:10:58.116Z,6.49
2018-01-27T06:13:26.437Z,6.44
2018-01-27T06:15:54.785Z,6.29
2018-01-27T06:18:23.109Z,6.17
2018-01-27T06:20:51.458Z,5.84
2018-01-27T06:23:19.782Z,5.82
2018-01-27T06:25:48.129Z,5.97
2018-01-27T06:28:16.449Z,5.92
2018-01-27T06:30:44.769Z,5.99
2018-01-27T06:33:13.114Z,6.00
2018-01-27T06:35:41.437Z,6.03
2018-01-27T06:38:09.782Z,5.98
2018-01-27T06:40:38.106Z,5.86
2018-01-27T06:43:06.457Z,5.91
2018-01-27T06:45:34.921Z,5.84
2018-01-27T06:48:03.250Z,5.93
2018-01-27T06:50:31.572Z,6.00
2018-01-27T06:52:59.918Z,5.98
2018-01-27T06:55:28.242Z,6.14
2018-01-27T06:57:56.589Z,6.15
2018-01-27T07:00:24.909Z,6.14
2018-01-27T07:02:53.254Z,6.16
2018-01-27T07:05:21.578Z,6.16
2018-01-27T07:07:49.926Z,6.10
2018-01-27T07:10:18.250Z,6.08
2018-01-27T07:12:46.597Z,6.07
2018-01-27T07:15:14.917Z,6.17
2018-01-27T07:17:43.261Z,6.18
2018-01-27T07:20:11.581Z,6.14
2018-01-27T07:22:39.922Z,6.03
2018-01-27T07:25:08.246Z,5.99
2018-01-27T07:27:36.595Z,6.11
2018-01-27T07:30:04.923Z,6.06
2018-01-27T07:32:33.261Z,6.15
2018-01-27T07:35:01.592Z,6.25
2018-01-27T07:37:29.937Z,6.25
2018-01-27T07:39:58.259Z,6.18
2018-01-27T07:42:26.601Z,6.12
2018-01-27T07:44:55.089Z,6.07
2018-01-27T07:47:23.433Z,6.17
2018-01-27T07:49:51.757Z,6.25
2018-01-27T07:52:20.100Z,6.26
2018-01-27T07:54:48.423Z,6.26
2018-01-27T07:57:16.766Z,6.23
2018-01-27T07:59:45.090Z,6.20
2018-01-27T08:02:13.434Z,6.20
2018-01-27T08:04:41.761Z,6.30
2018-01-27T08:07:10.104Z,6.27
2018-01-27T08:09:38.421Z,6.33
2018-01-27T08:12:06.766Z,6.26
2018-01-27T08:14:35.097Z,6.26
2018-01-27T08:17:03.437Z,6.24
2018-01-27T08:19:31.765Z,6.30
2018-01-27T08:22:00.113Z,6.36
2018-01-27T08:24:28.437Z,6.34
2018-01-27T08:26:56.793Z,6.45
2018-01-27T08:29:25.575Z,6.54
2018-01-27T08:32:00.677Z,6.52
2018-01-27T08:34:35.162Z,6.59
2018-01-27T08:37:03.549Z,6.47
2018-01-27T08:39:31.860Z,6.50
2018-01-27T08:42:00.195Z,6.48
2018-01-27T08:44:28.545Z,6.36
2018-01-27T08:46:56.869Z,6.54
2018-01-27T08:49:25.227Z,6.50
2018-01-27T08:51:53.557Z,6.58
2018-01-27T08:54:21.966Z,6.53
2018-01-27T08:56:50.305Z,6.52
2018-01-27T08:59:18.653Z,6.62
2018-01-27T09:01:47.015Z,6.62
2018-01-27T09:04:15.349Z,6.67
2018-01-27T09:06:43.682Z,6.63
2018-01-27T09:09:12.060Z,6.65
2018-01-27T09:11:40.409Z,6.64
2018-01-27T09:14:08.770Z,6.69
2018-01-27T09:16:37.105Z,6.68
2018-01-27T09:19:05.462Z,6.71
2018-01-27T09:21:33.794Z,6.67
2018-01-27T09:24:02.146Z,6.78
2018-01-27T09:26:30.479Z,6.87
2018-01-27T09:28:58.986Z,6.82
2018-01-27T09:31:28.145Z,6.89
2018-01-27T09:33:56.610Z,6.81
2018-01-27T09:36:24.937Z,6.91
2018-01-27T09:38:53.301Z,6.92
2018-01-27T09:41:21.637Z,7.01
2018-01-27T09:43:49.989Z,7.08
2018-01-27T09:46:18.317Z,7.10
2018-01-27T09:48:46.669Z,7.13
2018-01-27T09:51:15.917Z,7.32
2018-01-27T09:53:44.370Z,7.39
2018-01-27T09:56:12.685Z,7.37
2018-01-27T09:58:41.035Z,7.41
2018-01-27T10:01:09.366Z,7.36
2018-01-27T10:03:37.718Z,7.45
2018-01-27T10:06:06.053Z,7.47
2018-01-27T10:08:34.402Z,7.42
2018-01-27T10:11:03.809Z,7.47
2018-01-27T10:13:32.229Z,7.53
2018-01-27T10:16:01.514Z,7.43
2018-01-27T10:18:29.868Z,7.50
2018-01-27T10:20:58.206Z,7.47
2018-01-27T10:23:26.545Z,7.44
2018-01-27T10:25:54.890Z,7.47
2018-01-27T10:28:23.330Z,7.56
2018-01-27T10:30:52.175Z,7.59
2018-01-27T10:33:20.522Z,7.70
2018-01-27T10:35:48.890Z,7.61
2018-01-27T10:38:17.226Z,7.70
2018-01-27T10:40:45.553Z,7.76
2018-01-27T10:43:13.902Z,7.85
2018-01-27T10:45:43.206Z,7.91
2018-01-27T10:48:11.563Z,7.77
2018-01-27T10:50:39.935Z,7.83
2018-01-27T10:53:08.265Z,7.84
2018-01-27T10:55:36.658Z,7.74
2018-01-27T10:58:04.990Z,7.71
2018-01-27T11:00:33.348Z,7.75
2018-01-27T11:03:01.678Z,7.67
2018-01-27T11:05:30.042Z,7.73
2018-01-27T11:07:58.371Z,7.77
2018-01-27T11:10:26.720Z,7.71
2018-01-27T11:12:55.079Z,7.81
2018-01-27T11:15:23.426Z,7.87
2018-01-27T11:17:52.164Z,7.75
2018-01-27T11:20:20.489Z,7.76
2018-01-27T11:22:48.814Z,7.70
2018-01-27T11:25:17.165Z,8.22
2018-01-27T11:27:45.515Z,8.23
2018-01-27T11:30:14.518Z,8.34
2018-01-27T11:32:42.841Z,8.78
2018-01-27T11:35:11.189Z,9.50
2018-01-27T11:37:39.521Z,9.29
2018-01-27T11:40:07.877Z,8.97
2018-01-27T11:42:36.235Z,8.86
2018-01-27T11:45:04.621Z,8.63
2018-01-27T11:47:32.958Z,8.30
2018-01-27T11:50:01.321Z,8.45
2018-01-27T11:52:29.650Z,8.30
2018-01-27T11:54:58.049Z,8.23
2018-01-27T11:57:26.589Z,8.25
2018-01-27T11:59:54.950Z,8.32
2018-01-27T12:02:23.282Z,8.20
2018-01-27T12:04:51.650Z,8.27
2018-01-27T12:07:19.982Z,8.15
2018-01-27T12:09:48.339Z,8.15
2018-01-27T12:12:16.674Z,8.18
2018-01-27T12:14:45.034Z,8.14
2018-01-27T12:17:14.121Z,8.24
2018-01-27T12:19:42.478Z,8.27
2018-01-27T12:22:10.810Z,8.14
2018-01-27T12:24:39.165Z,8.18
2018-01-27T12:27:07.497Z,8.14
2018-01-27T12:29:35.917Z,8.18
2018-01-27T12:32:04.401Z,8.22
2018-01-27T12:34:34.718Z,8.25
2018-01-27T12:37:03.092Z,8.17
2018-01-27T12:39:31.446Z,8.14
2018-01-27T12:41:59.855Z,8.12
2018-01-27T12:44:28.427Z,8.17
2018-01-27T12:46:56.777Z,8.17
2018-01-27T12:49:25.122Z,8.11
2018-01-27T12:51:53.456Z,8.11
2018-01-27T12:54:21.781Z,8.02
2018-01-27T12:56:50.970Z,8.34
2018-01-27T12:59:19.278Z,8.56
2018-01-27T13:01:47.626Z,8.45
2018-01-27T13:04:15.949Z,8.69
2018-01-27T13:06:44.301Z,8.56
2018-01-27T13:09:12.634Z,8.58
2018-01-27T13:11:41.297Z,8.46
2018-01-27T13:14:09.622Z,8.46
2018-01-27T13:16:37.973Z,8.30
2018-01-27T13:19:06.306Z,8.36
2018-01-27T13:21:34.649Z,8.31
2018-01-27T13:24:02.974Z,8.13
2018-01-27T13:26:31.327Z,8.20
2018-01-27T13:28:59.657Z,8.16
2018-01-27T13:31:28.017Z,8.13
2018-01-27T13:33:56.342Z,8.24
2018-01-27T13:36:24.873Z,8.21
2018-01-27T13:38:53.203Z,8.14
2018-01-27T13:41:21.553Z,8.14
2018-01-27T13:43:49.881Z,8.12
2018-01-27T13:46:18.226Z,8.03
2018-01-27T13:48:46.553Z,8.00
2018-01-27T13:51:14.901Z,7.93
2018-01-27T13:53:43.225Z,8.00
2018-01-27T13:56:12.705Z,7.99
2018-01-27T13:58:41.013Z,8.02
2018-01-27T14:01:09.366Z,7.99
2018-01-27T14:03:37.697Z,8.02
2018-01-27T14:06:06.041Z,8.12
2018-01-27T14:08:34.370Z,8.09
2018-01-27T14:11:02.721Z,7.95
2018-01-27T14:13:31.045Z,7.93
2018-01-27T14:16:00.309Z,7.88
2018-01-27T14:18:28.638Z,7.99
2018-01-27T14:20:56.997Z,8.03
2018-01-27T14:23:25.340Z,7.88
2018-01-27T14:25:53.690Z,7.89
2018-01-27T14:28:22.014Z,7.98
2018-01-27T14:30:50.366Z,7.93
2018-01-27T14:33:18.693Z,7.87
2018-01-27T14:35:47.050Z,7.90
2018-01-27T14:38:15.373Z,7.93
2018-01-27T14:40:43.720Z,7.87
2018-01-27T14:43:12.048Z,7.78
2018-01-27T14:45:41.301Z,7.82
2018-01-27T14:48:09.626Z,7.69
2018-01-27T14:50:37.978Z,7.76
2018-01-27T14:53:06.310Z,7.83
2018-01-27T14:55:35.097Z,7.64
2018-01-27T14:58:03.426Z,7.54
2018-01-27T15:00:31.748Z,7.55
2018-01-27T15:03:00.097Z,7.55
2018-01-27T15:05:28.437Z,7.52
2018-01-27T15:07:56.787Z,7.62
2018-01-27T15:10:25.105Z,7.63
2018-01-27T15:12:53.459Z,7.64
2018-01-27T15:15:22.655Z,7.48
2018-01-27T15:17:51.005Z,7.52
2018-01-27T15:20:19.334Z,7.48
2018-01-27T15:22:47.694Z,7.37
2018-01-27T15:25:16.017Z,7.52
2018-01-27T15:27:44.366Z,7.35
2018-01-27T15:30:12.696Z,7.30
2018-01-27T15:32:41.046Z,7.23
2018-01-27T15:35:10.236Z,7.19
2018-01-27T15:37:38.597Z,7.10
2018-01-27T15:40:06.921Z,7.04
2018-01-27T15:42:35.274Z,7.14
2018-01-27T15:45:03.613Z,7.07
2018-01-27T15:47:31.957Z,7.01
2018-01-27T15:50:00.304Z,7.10
2018-01-27T15:52:28.680Z,6.94
2018-01-27T15:54:57.861Z,6.94
2018-01-27T15:57:26.317Z,6.93
2018-01-27T15:59:54.638Z,6.89
2018-01-27T16:02:22.989Z,6.92
2018-01-27T16:04:51.313Z,6.83
2018-01-27T16:07:19.695Z,6.82
2018-01-27T16:09:48.036Z,6.84
2018-01-27T16:12:16.378Z,6.90
2018-01-27T16:14:44.730Z,6.85
2018-01-27T16:17:13.119Z,6.85
2018-01-27T16:19:41.409Z,6.65
2018-01-27T16:22:09.758Z,6.78
2018-01-27T16:24:38.086Z,6.71
2018-01-27T16:27:06.439Z,6.67
2018-01-27T16:29:34.765Z,6.73
2018-01-27T16:32:03.131Z,6.81
2018-01-27T16:34:32.323Z,6.69
2018-01-27T16:37:00.653Z,6.71
2018-01-27T16:39:28.985Z,6.74
2018-01-27T16:41:57.334Z,6.83
2018-01-27T16:44:25.661Z,7.12
2018-01-27T16:46:54.018Z,7.17
2018-01-27T16:49:22.342Z,7.02
2018-01-27T16:51:50.705Z,6.86
2018-01-27T16:54:19.031Z,6.82
2018-01-27T16:56:47.377Z,6.68
2018-01-27T16:59:15.705Z,6.73
2018-01-27T17:01:44.070Z,6.63
2018-01-27T17:04:12.393Z,6.54
2018-01-27T17:06:40.725Z,6.69
2018-01-27T17:09:09.074Z,6.67
2018-01-27T17:11:37.410Z,6.51
2018-01-27T17:14:05.762Z,6.61
2018-01-27T17:16:34.094Z,6.56
2018-01-27T17:19:02.453Z,6.55
2018-01-27T17:21:30.779Z,6.55
2018-01-27T17:23:59.125Z,6.54
2018-01-27T17:26:27.453Z,6.45
2018-01-27T17:28:55.806Z,6.54
2018-01-27T17:31:24.137Z,6.62
2018-01-27T17:33:52.485Z,6.69
2018-01-27T17:36:20.814Z,6.66
2018-01-27T17:38:49.163Z,6.64
2018-01-27T17:41:17.490Z,6.63
2018-01-27T17:43:45.841Z,6.62
2018-01-27T17:46:14.174Z,6.61
2018-01-27T17:48:42.533Z,6.55
2018-01-27T17:51:10.862Z,6.65
2018-01-27T17:53:39.206Z,6.43
2018-01-27T17:56:07.538Z,6.43
2018-01-27T17:58:35.893Z,6.51
2018-01-27T18:01:04.734Z,6.58
2018-01-27T18:03:33.084Z,6.55
2018-01-27T18:06:01.415Z,6.52
2018-01-27T18:08:29.765Z,6.54
2018-01-27T18:10:58.095Z,6.59
2018-01-27T18:13:26.442Z,6.65
2018-01-27T18:15:54.765Z,6.61
2018-01-27T18:18:23.116Z,6.61
2018-01-27T18:20:51.442Z,6.57
2018-01-27T18:23:19.793Z,6.61
2018-01-27T18:25:49.097Z,6.66
2018-01-27T18:28:17.445Z,6.64
2018-01-27T18:30:45.769Z,6.67
2018-01-27T18:33:14.109Z,6.59
2018-01-27T18:35:42.438Z,6.74
2018-01-27T18:38:10.781Z,6.73
2018-01-27T18:40:39.113Z,6.71
2018-01-27T18:43:07.461Z,6.78
2018-01-27T18:45:35.789Z,6.79
2018-01-27T18:48:04.142Z,6.78
2018-01-27T18:50:32.466Z,6.78
2018-01-27T18:53:00.813Z,6.81
2018-01-27T18:55:29.141Z,6.81
2018-01-27T18:57:57.491Z,6.81
2018-01-27T19:00:25.812Z,6.90
2018-01-27T19:02:54.153Z,6.94
2018-01-27T19:05:22.477Z,6.99
2018-01-27T19:07:50.852Z,7.00
2018-01-27T19:10:19.201Z,7.03
2018-01-27T19:12:47.520Z,6.99
2018-01-27T19:15:16.018Z,6.94
2018-01-27T19:17:44.472Z,6.98
2018-01-27T19:20:12.826Z,7.04
2018-01-27T19:22:41.145Z,7.06
2018-01-27T19:25:09.490Z,7.07
2018-01-27T19:27:37.813Z,7.05
2018-01-27T19:30:06.161Z,7.14
2018-01-27T19:32:34.482Z,7.16
2018-01-27T19:35:02.830Z,7.27
2018-01-27T19:37:32.108Z,7.22
2018-01-27T19:40:00.450Z,7.19
2018-01-27T19:42:28.769Z,7.17
2018-01-27T19:44:57.113Z,7.21
2018-01-27T19:47:25.434Z,7.18
2018-01-27T19:49:53.773Z,7.28
2018-01-27T19:52:22.093Z,7.14
2018-01-27T19:54:50.438Z,7.27
2018-01-27T19:57:18.917Z,7.20
2018-01-27T19:59:47.262Z,7.21
2018-01-27T20:02:15.590Z,7.20
2018-01-27T20:04:43.933Z,7.22
2018-01-27T20:07:12.257Z,7.21
2018-01-27T20:09:40.610Z,7.20
2018-01-27T20:12:08.934Z,7.21
2018-01-27T20:14:37.274Z,7.19
2018-01-27T20:17:06.489Z,7.27
2018-01-27T20:19:34.825Z,7.20
2018-01-27T20:22:03.148Z,7.21
2018-01-27T20:24:31.491Z,7.21
2018-01-27T20:26:59.812Z,7.27
2018-01-27T20:29:28.157Z,7.28
2018-01-27T20:31:56.473Z,7.28
2018-01-27T20:34:24.813Z,7.30
2018-01-27T20:36:54.077Z,7.35
2018-01-27T20:39:22.421Z,7.28
2018-01-27T20:41:50.751Z,7.26
2018-01-27T20:44:19.089Z,7.33
2018-01-27T20:46:47.410Z,7.42
2018-01-27T20:49:15.753Z,7.36
2018-01-27T20:51:44.085Z,7.46
2018-01-27T20:54:12.426Z,7.38
2018-01-27T20:56:40.745Z,7.36
2018-01-27T20:59:09.090Z,7.42
2018-01-27T21:01:37.414Z,7.33
2018-01-27T21:04:05.749Z,7.35
2018-01-27T21:06:34.074Z,7.40
2018-01-27T21:09:02.398Z,7.38
2018-01-27T21:11:30.745Z,7.44
2018-01-27T21:13:59.069Z,7.38
2018-01-27T21:16:27.405Z,7.34
2018-01-27T21:18:55.726Z,7.40
2018-01-27T21:21:24.070Z,7.45
2018-01-27T21:23:52.393Z,7.43
2018-01-27T21:26:20.738Z,7.44
2018-01-27T21:28:49.062Z,7.46
2018-01-27T21:31:17.405Z,7.60
2018-01-27T21:33:45.725Z,7.54
2018-01-27T21:36:14.062Z,7.58
2018-01-27T21:38:42.382Z,7.68
2018-01-27T21:41:10.725Z,7.60
2018-01-27T21:43:39.046Z,7.67
2018-01-27T21:46:07.382Z,7.73
2018-01-27T21:48:35.701Z,7.71
2018-01-27T21:51:04.038Z,7.76
2018-01-27T21:53:32.359Z,7.82
2018-01-27T21:56:00.698Z,7.85
2018-01-27T21:58:29.014Z,7.78
2018-01-27T22:00:57.353Z,7.85
2018-01-27T22:03:33.034Z,7.80
2018-01-27T22:06:01.373Z,7.76
2018-01-27T22:08:29.681Z,7.77
2018-01-27T22:10:58.017Z,7.76
2018-01-27T22:13:26.333Z,7.80
2018-01-27T22:15:54.670Z,7.79
2018-01-27T22:18:22.997Z,7.74
2018-01-27T22:20:51.332Z,7.71
2018-01-27T22:23:19.649Z,7.67
2018-01-27T22:25:47.985Z,7.54
2018-01-27T22:28:16.297Z,7.53
2018-01-27T22:30:44.633Z,7.39
2018-01-27T22:33:12.949Z,7.37
2018-01-27T22:35:41.291Z,7.35
2018-01-27T22:38:09.606Z,7.21
2018-01-27T22:40:37.944Z,7.16
2018-01-27T22:43:06.273Z,7.11
2018-01-27T22:45:34.605Z,7.02
2018-01-27T22:48:03.130Z,6.94
2018-01-27T22:50:31.465Z,6.77
2018-01-27T22:52:59.781Z,6.80
2018-01-27T22:55:28.113Z,6.74
2018-01-27T22:57:56.436Z,6.73
2018-01-27T23:00:24.760Z,6.67
2018-01-27T23:02:53.082Z,6.76
2018-01-27T23:05:21.422Z,6.72
2018-01-27T23:07:49.738Z,6.78
2018-01-27T23:10:18.078Z,6.73
2018-01-27T23:12:46.393Z,6.74
2018-01-27T23:15:14.707Z,6.66
2018-01-27T23:17:43.045Z,6.81
2018-01-27T23:20:11.361Z,6.72
2018-01-27T23:22:39.697Z,6.76
2018-01-27T23:25:08.049Z,6.68
2018-01-27T23:27:36.373Z,6.72
2018-01-27T23:30:04.694Z,6.67
2018-01-27T23:32:33.029Z,6.63
2018-01-27T23:35:01.338Z,6.64
2018-01-27T23:37:29.682Z,6.57
2018-01-27T23:39:57.997Z,6.64
2018-01-27T23:42:26.337Z,6.70
2018-01-27T23:44:54.654Z,6.64
2018-01-27T23:47:22.993Z,6.55
2018-01-27T23:49:51.318Z,6.55
2018-01-27T23:52:19.662Z,6.50
2018-01-27T23:54:47.982Z,6.50
2018-01-27T23:57:16.321Z,6.50
2018-01-27T23:59:44.633Z,6.36
